Time;durP1;ratioP1;P1;durP2;ratioP2;P2;SDS_P1;SDS_P2;PMS_P1;PMS_P2;Temp;Humidity;BMP_temperature;BMP_pressure;BME280_temperature;BME280_humidity;BME280_pressure;Samples;Min_cycle;Max_cycle;Signal;HPM_P1;HPM_P2
2021/07/13 00:01:19;;;;;;;;;;;;;;;-142.75;74.54;76294.72;5040661;28;19912;-84
2021/07/13 00:03:44;;;;;;;;;;;;;;;-142.75;74.49;76298.66;5058877;28;19916;-84
2021/07/13 00:06:10;;;;;;;;;;;;;;;-142.75;74.23;76304.56;5058195;28;19966;-84
2021/07/13 00:08:35;;;;;;;;;;;;;;;-142.75;74.26;76320.31;5056402;28;19912;-85
2021/07/13 00:11:00;;;;;;;;;;;;;;;-142.75;74.12;76322.28;5057339;28;19913;-82
2021/07/13 00:13:25;;;;;;;;;;;;;;;-142.75;74.21;76330.16;5058120;28;19917;-85
2021/07/13 00:15:52;;;;;;;;;;;;;;;-142.75;73.98;76345.91;5058092;28;19913;-85
2021/07/13 00:18:17;;;;;;;;;;;;;;;-142.75;74.14;76349.81;5041017;28;20476;-84
2021/07/13 00:20:43;;;;;;;;;;;;;;;-142.75;74.18;76357.69;5057644;28;19928;-84
2021/07/13 00:23:08;;;;;;;;;;;;;;;-142.75;73.90;76375.41;5040581;28;19936;-84
2021/07/13 00:25:34;;;;;;;;;;;;;;;-142.75;74.10;76373.44;5040349;28;20285;-84
2021/07/13 00:27:59;;;;;;;;;;;;;;;-142.75;74.02;76383.28;5040247;28;20346;-84
2021/07/13 00:30:25;;;;;;;;;;;;;;;-142.75;74.37;76389.19;5060155;28;19912;-83
2021/07/13 00:32:50;;;;;;;;;;;;;;;-142.75;74.42;76389.19;5042115;28;20335;-84
2021/07/13 00:35:15;;;;;;;;;;;;;;;-142.75;74.14;76410.84;5040895;28;20016;-84
2021/07/13 00:37:43;;;;;;;;;;;;;;;-142.75;74.75;76412.81;5058217;28;19916;-83
2021/07/13 00:40:10;;;;;;;;;;;;;;;-142.75;75.07;76424.63;5040067;28;19924;-84
2021/07/13 00:42:36;;;;;;;;;;;;;;;-142.75;75.14;76420.69;5040630;28;19913;-83
2021/07/13 00:45:02;;;;;;;;;;;;;;;-142.75;75.42;76410.84;5057625;28;20035;-84
2021/07/13 00:47:27;;;;;;;;;;;;;;;-142.75;75.71;76416.75;5057871;28;19920;-84
2021/07/13 00:49:53;;;;;;;;;;;;;;;-142.75;75.86;76424.63;5058588;28;19924;-84
2021/07/13 00:52:19;;;;;;;;;;;;;;;-142.75;75.57;76428.56;5038463;28;19913;-84
2021/07/13 00:54:46;;;;;;;;;;;;;;;-142.75;75.47;76430.53;5040023;28;19978;-84
2021/07/13 00:57:13;;;;;;;;;;;;;;;-142.75;75.36;76430.53;5038651;28;19924;-84
2021/07/13 00:59:39;;;;;;;;;;;;;;;-142.75;75.47;76434.47;5038987;28;19923;-85
2021/07/13 01:02:04;;;;;;;;;;;;;;;-142.75;75.91;76438.41;5057866;28;19913;-83
2021/07/13 01:04:30;;;;;;;;;;;;;;;-142.75;76.35;76440.38;5058780;28;20370;-83
2021/07/13 01:07:00;;;;;;;;;;;;;;;-142.75;76.58;76436.44;5057475;28;19913;-83
2021/07/13 01:09:31;;;;;;;;;;;;;;;-142.75;76.55;76428.56;5039893;28;19925;-84
2021/07/13 01:12:08;;;;;;;;;;;;;;;-142.75;76.10;76432.50;5057986;28;19916;-83
2021/07/13 01:14:41;;;;;;;;;;;;;;;-142.75;76.23;76436.44;5058958;28;19919;-84
2021/07/13 01:17:12;;;;;;;;;;;;;;;-142.75;76.02;76434.47;5056508;28;19917;-83
2021/07/13 01:19:52;;;;;;;;;;;;;;;-142.75;76.15;76426.59;5056450;28;19936;-84
2021/07/13 01:22:40;;;;;;;;;;;;;;;-142.75;75.80;76436.44;5040802;28;19961;-83
2021/07/13 01:25:26;;;;;;;;;;;;;;;-142.75;76.40;76446.28;5050636;28;19912;-82
2021/07/13 01:27:57;;;;;;;;;;;;;;;-142.75;76.38;76452.19;5009388;28;19914;-82
2021/07/13 01:30:25;;;;;;;;;;;;;;;-142.75;76.40;76448.25;5058781;28;19913;-84
2021/07/13 01:32:58;;;;;;;;;;;;;;;-142.75;76.40;76444.31;5059602;28;19912;-82
2021/07/13 01:35:31;;;;;;;;;;;;;;;-142.75;76.40;76438.41;5056231;28;19913;-82
2021/07/13 01:37:58;;;;;;;;;;;;;;;-142.75;76.46;76430.53;5039488;28;20019;-82
2021/07/13 01:40:24;;;;;;;;;;;;;;;-142.75;76.37;76426.59;5057251;28;19948;-83
2021/07/13 01:42:49;;;;;;;;;;;;;;;-142.75;75.91;76452.19;5039799;28;19913;-82
2021/07/13 01:45:15;;;;;;;;;;;;;;;-142.75;75.91;76460.06;5039509;28;19923;-82
2021/07/13 01:47:41;;;;;;;;;;;;;;;-142.75;76.08;76456.13;5057223;28;19912;-82
2021/07/13 01:50:08;;;;;;;;;;;;;;;-142.75;75.85;76469.91;5037991;28;19928;-82
2021/07/13 01:52:34;;;;;;;;;;;;;;;-142.75;75.46;76473.84;5039231;28;19920;-84
2021/07/13 01:55:00;;;;;;;;;;;;;;;-142.75;75.76;76483.69;5037854;28;19912;-83
2021/07/13 01:57:27;;;;;;;;;;;;;;;-142.75;76.01;76491.56;5036704;28;19919;-84
2021/07/13 01:59:52;;;;;;;;;;;;;;;-142.75;75.93;76491.56;5056513;28;19913;-82
2021/07/13 02:02:17;;;;;;;;;;;;;;;-142.75;75.97;76493.53;5058014;28;19920;-81
2021/07/13 02:04:45;;;;;;;;;;;;;;;-142.75;76.25;76511.25;5058192;28;19920;-81
2021/07/13 02:07:11;;;;;;;;;;;;;;;-142.75;76.57;76513.22;5040380;28;19956;-82
2021/07/13 02:09:37;;;;;;;;;;;;;;;-142.75;76.51;76507.31;5039826;28;19917;-81
2021/07/13 02:12:03;;;;;;;;;;;;;;;-142.75;76.92;76491.56;5058140;28;20328;-82
2021/07/13 02:14:28;;;;;;;;;;;;;;;-142.75;77.33;76477.78;5056688;28;19912;-81
2021/07/13 02:16:54;;;;;;;;;;;;;;;-142.75;77.24;76485.66;5040142;28;20297;-82
2021/07/13 02:19:21;;;;;;;;;;;;;;;-142.75;76.88;76489.59;5057194;28;20294;-81
2021/07/13 02:21:48;;;;;;;;;;;;;;;-142.75;77.01;76483.69;5038977;28;19983;-82
2021/07/13 02:24:13;;;;;;;;;;;;;;;-142.75;76.80;76483.69;5038708;28;19935;-81
2021/07/13 02:26:43;;;;;;;;;;;;;;;-142.75;76.92;76464.00;5038787;28;19913;-83
2021/07/13 02:29:11;;;;;;;;;;;;;;;-142.75;76.77;76469.91;5056794;28;20322;-83
2021/07/13 02:31:40;;;;;;;;;;;;;;;-142.75;76.50;76471.88;5038263;28;19921;-81
2021/07/13 02:34:09;;;;;;;;;;;;;;;-142.75;76.44;76473.84;5038958;28;19919;-81
2021/07/13 02:36:36;;;;;;;;;;;;;;;-142.75;76.44;76479.75;5039391;28;19920;-81
2021/07/13 02:39:04;;;;;;;;;;;;;;;-142.75;76.36;76479.75;5037597;28;20070;-81
2021/07/13 02:41:29;;;;;;;;;;;;;;;-142.75;76.37;76481.72;5038673;28;19913;-81
2021/07/13 02:43:55;;;;;;;;;;;;;;;-142.75;76.67;76471.88;5057366;28;20313;-81
2021/07/13 02:46:21;;;;;;;;;;;;;;;-142.75;76.76;76467.94;5057159;28;20433;-81
2021/07/13 02:48:47;;;;;;;;;;;;;;;-142.75;76.80;76460.06;5038167;28;20313;-81
2021/07/13 02:51:13;;;;;;;;;;;;;;;-142.75;76.99;76456.13;5056500;28;19935;-81
2021/07/13 02:53:38;;;;;;;;;;;;;;;-142.75;76.91;76456.13;5054773;28;19913;-80
2021/07/13 02:56:05;;;;;;;;;;;;;;;-142.75;76.88;76456.13;5054503;28;20366;-81
2021/07/13 02:58:31;;;;;;;;;;;;;;;-142.75;76.88;76454.16;5037310;28;20332;-81
2021/07/13 03:00:57;;;;;;;;;;;;;;;-142.75;76.73;76460.06;5055962;28;19972;-81
2021/07/13 03:03:23;;;;;;;;;;;;;;;-142.75;76.79;76456.13;5055805;28;19912;-82
2021/07/13 03:05:49;;;;;;;;;;;;;;;-142.75;77.21;76446.28;5053539;28;19912;-81
2021/07/13 03:08:14;;;;;;;;;;;;;;;-142.75;77.28;76448.25;5055959;28;19913;-80
2021/07/13 03:10:40;;;;;;;;;;;;;;;-142.75;77.23;76454.16;5056256;28;20426;-80
2021/07/13 03:13:05;;;;;;;;;;;;;;;-142.75;77.22;76448.25;5039189;28;19916;-80
2021/07/13 03:15:31;;;;;;;;;;;;;;;-142.75;77.32;76446.28;5055107;28;20657;-80
2021/07/13 03:17:56;;;;;;;;;;;;;;;-142.75;77.52;76444.31;5057088;28;19920;-80
2021/07/13 03:20:22;;;;;;;;;;;;;;;-142.75;78.10;76422.66;5057295;28;19921;-80
2021/07/13 03:22:49;;;;;;;;;;;;;;;-142.75;78.63;76402.97;5038918;28;19913;-80
2021/07/13 03:25:19;;;;;;;;;;;;;;;-142.75;79.13;76381.31;5055897;28;19913;-80
2021/07/13 03:27:44;;;;;;;;;;;;;;;-142.75;79.49;76387.22;5057353;28;19913;-81
2021/07/13 03:30:10;;;;;;;;;;;;;;;-142.75;80.30;76373.44;5056483;28;19958;-81
2021/07/13 03:32:35;;;;;;;;;;;;;;;-142.75;80.48;76365.56;5056236;28;19916;-81
2021/07/13 03:35:01;;;;;;;;;;;;;;;-142.75;80.62;76363.59;5056493;28;19959;-80
2021/07/13 03:37:27;;;;;;;;;;;;;;;-142.75;80.74;76355.72;5056178;28;19925;-81
2021/07/13 03:39:54;;;;;;;;;;;;;;;-142.75;80.75;76353.78;5054824;28;19912;-80
2021/07/13 03:42:21;;;;;;;;;;;;;;;-142.75;80.69;76345.91;5057241;28;19919;-81
2021/07/13 03:44:47;;;;;;;;;;;;;;;-142.75;80.50;76353.78;5056012;28;19956;-80
2021/07/13 03:47:16;;;;;;;;;;;;;;;-142.75;80.45;76363.59;5055260;28;19949;-80
2021/07/13 03:49:42;;;;;;;;;;;;;;;-142.75;80.38;76357.69;5036984;28;20019;-81
2021/07/13 03:52:08;;;;;;;;;;;;;;;-142.75;80.38;76351.81;5054791;28;19974;-81
2021/07/13 03:54:33;;;;;;;;;;;;;;;-142.75;80.25;76345.91;5038545;28;19913;-81
2021/07/13 03:56:59;;;;;;;;;;;;;;;-142.75;80.27;76338.03;5056422;28;19925;-81
2021/07/13 03:59:24;;;;;;;;;;;;;;;-142.75;80.26;76334.09;5056046;28;19925;-81
2021/07/13 04:01:49;;;;;;;;;;;;;;;-142.75;80.23;76326.22;5055675;28;20325;-81
2021/07/13 04:04:14;;;;;;;;;;;;;;;-142.75;80.17;76322.28;5037921;28;19936;-81
2021/07/13 04:06:40;;;;;;;;;;;;;;;-142.75;80.21;76314.41;5037519;28;19932;-81
2021/07/13 04:09:06;;;;;;;;;;;;;;;-142.75;80.11;76306.53;5036618;28;19913;-81
2021/07/13 04:11:31;;;;;;;;;;;;;;;-142.75;80.19;76304.56;5037698;28;19913;-81
2021/07/13 04:13:56;;;;;;;;;;;;;;;-142.75;80.13;76302.59;5038698;28;19923;-80
2021/07/13 04:16:21;;;;;;;;;;;;;;;-142.75;80.16;76302.59;5039049;28;19925;-81
2021/07/13 04:18:46;;;;;;;;;;;;;;;-142.75;80.14;76298.66;5057591;28;20366;-80
2021/07/13 04:21:12;;;;;;;;;;;;;;;-142.75;80.23;76300.63;5061137;28;19913;-80
2021/07/13 04:23:37;;;;;;;;;;;;;;;-142.75;80.20;76302.59;5041846;28;19999;-80
2021/07/13 04:26:04;;;;;;;;;;;;;;;-142.75;80.17;76306.53;5059470;28;20567;-80
2021/07/13 04:28:31;;;;;;;;;;;;;;;-142.75;80.21;76304.56;5058719;28;19912;-81
2021/07/13 04:30:57;;;;;;;;;;;;;;;-142.75;80.16;76300.63;5060453;28;19940;-81
2021/07/13 04:33:22;;;;;;;;;;;;;;;-142.75;80.06;76300.63;5041924;28;19916;-81
2021/07/13 04:35:47;;;;;;;;;;;;;;;-142.75;79.92;76298.66;5059893;28;19913;-80
2021/07/13 04:38:12;;;;;;;;;;;;;;;-142.75;79.84;76292.75;5040085;28;19924;-81
2021/07/13 04:40:38;;;;;;;;;;;;;;;-142.75;79.81;76282.91;5058250;28;19948;-81
2021/07/13 04:43:03;;;;;;;;;;;;;;;-142.75;79.84;76273.06;5039776;28;19913;-80
2021/07/13 04:45:28;;;;;;;;;;;;;;;-142.75;79.99;76263.22;5060054;28;20367;-80
2021/07/13 04:47:53;;;;;;;;;;;;;;;-142.75;80.12;76253.38;5041488;28;19917;-81
2021/07/13 04:50:18;;;;;;;;;;;;;;;-142.75;80.47;76237.63;5058956;28;19944;-80
2021/07/13 04:52:44;;;;;;;;;;;;;;;-142.75;80.88;76217.94;5041058;28;19968;-80
2021/07/13 04:55:09;;;;;;;;;;;;;;;-142.75;81.15;76200.25;5040544;28;19913;-80
2021/07/13 04:57:34;;;;;;;;;;;;;;;-142.75;81.37;76190.41;5040196;28;19970;-80
2021/07/13 05:00:00;;;;;;;;;;;;;;;-142.75;81.54;76174.66;5039664;28;19913;-80
2021/07/13 05:02:25;;;;;;;;;;;;;;;-142.75;81.58;76162.84;5058150;28;19920;-80
2021/07/13 05:04:52;;;;;;;;;;;;;;;-142.75;81.54;76158.91;5058388;28;20686;-81
2021/07/13 05:07:17;;;;;;;;;;;;;;;-142.75;81.55;76147.09;5058712;28;19944;-80
2021/07/13 05:09:42;;;;;;;;;;;;;;;-142.75;81.53;76141.19;5058343;28;19916;-81
2021/07/13 05:12:07;;;;;;;;;;;;;;;-142.75;81.52;76135.28;5038950;28;19912;-81
2021/07/13 05:14:34;;;;;;;;;;;;;;;-142.75;81.45;76133.31;5059238;28;19913;-80
2021/07/13 05:16:59;;;;;;;;;;;;;;;-142.75;81.29;76127.41;5058539;28;19983;-80
2021/07/13 05:19:24;;;;;;;;;;;;;;;-142.75;81.17;76121.50;5058188;28;19917;-79
2021/07/13 05:21:56;;;;;;;;;;;;;;;-142.75;81.04;76117.56;5040219;28;19913;-79
2021/07/13 05:24:22;;;;;;;;;;;;;;;-142.75;80.75;76113.63;5057087;28;19971;-80
2021/07/13 05:26:47;;;;;;;;;;;;;;;-142.75;80.44;76107.72;5058207;28;19921;-80
2021/07/13 05:29:13;;;;;;;;;;;;;;;-142.75;80.11;76097.88;5040127;28;19919;-80
2021/07/13 05:31:38;;;;;;;;;;;;;;;-142.75;79.90;76093.94;5056711;28;19920;-80
2021/07/13 05:34:03;;;;;;;;;;;;;;;-142.75;79.71;76086.06;5039276;28;19921;-80
2021/07/13 05:36:28;;;;;;;;;;;;;;;-142.75;79.45;76076.22;5037999;28;19913;-80
2021/07/13 05:38:54;;;;;;;;;;;;;;;-142.75;79.44;76070.34;5039318;28;20281;-79
2021/07/13 05:41:21;;;;;;;;;;;;;;;-142.75;79.23;76074.25;5056788;28;19913;-81
2021/07/13 05:43:46;;;;;;;;;;;;;;;-142.75;79.20;76066.41;5056327;28;19920;-81
2021/07/13 05:46:11;;;;;;;;;;;;;;;-142.75;79.07;76068.38;5040372;28;20281;-80
2021/07/13 05:48:36;;;;;;;;;;;;;;;-142.75;78.90;76066.41;5039540;28;20382;-81
2021/07/13 05:51:01;;;;;;;;;;;;;;;-142.75;78.71;76062.47;5041791;22;19921;-81
2021/07/13 05:53:26;;;;;;;;;;;;;;;-142.75;78.51;76060.50;5008854;28;19917;-82
2021/07/13 05:55:52;;;;;;;;;;;;;;;-142.75;78.52;76052.63;5007722;28;19913;-82
2021/07/13 05:58:20;;;;;;;;;;;;;;;-142.75;78.53;76054.59;5026918;28;19924;-82
2021/07/13 06:00:45;;;;;;;;;;;;;;;-142.75;78.48;76048.69;5018185;28;19928;-81
2021/07/13 06:03:11;;;;;;;;;;;;;;;-142.75;78.34;76050.66;5023382;28;19917;-81
2021/07/13 06:05:36;;;;;;;;;;;;;;;-142.75;78.18;76042.78;5000814;28;19924;-81
2021/07/13 06:08:01;;;;;;;;;;;;;;;-142.75;78.07;76042.78;5003955;28;20359;-81
2021/07/13 06:10:26;;;;;;;;;;;;;;;-142.75;77.78;76042.78;5002481;28;20424;-82
2021/07/13 06:12:51;;;;;;;;;;;;;;;-142.75;77.55;76048.69;5022246;28;20031;-80
2021/07/13 06:15:17;;;;;;;;;;;;;;;-142.75;77.40;76044.75;5021525;28;19920;-81
2021/07/13 06:17:42;;;;;;;;;;;;;;;-142.75;77.43;76044.75;4998218;28;19925;-81
2021/07/13 06:20:08;;;;;;;;;;;;;;;-142.75;77.08;76048.69;5005514;28;19926;-81
2021/07/13 06:22:33;;;;;;;;;;;;;;;-142.75;76.94;76046.72;5003553;28;19917;-81
2021/07/13 06:24:58;;;;;;;;;;;;;;;-142.75;76.80;76036.88;5008031;28;20575;-81
2021/07/13 06:27:23;;;;;;;;;;;;;;;-142.75;76.76;76040.81;5009013;28;19916;-81
2021/07/13 06:29:48;;;;;;;;;;;;;;;-142.75;76.45;76036.88;5004994;28;19919;-81
2021/07/13 06:32:14;;;;;;;;;;;;;;;-142.75;76.49;76034.91;5003514;28;19914;-81
2021/07/13 06:34:39;;;;;;;;;;;;;;;-142.75;76.31;76036.88;5006695;28;19917;-82
2021/07/13 06:37:04;;;;;;;;;;;;;;;-142.75;76.21;76030.97;5027240;28;19913;-81
2021/07/13 06:39:29;;;;;;;;;;;;;;;-142.75;76.18;76027.03;5024242;28;20508;-81
2021/07/13 06:41:55;;;;;;;;;;;;;;;-142.75;76.08;76017.19;5007224;28;19920;-81
2021/07/13 06:44:20;;;;;;;;;;;;;;;-142.75;75.85;76017.19;5004298;28;19955;-80
2021/07/13 06:46:45;;;;;;;;;;;;;;;-142.75;75.88;76019.16;5002368;28;19932;-81
2021/07/13 06:49:10;;;;;;;;;;;;;;;-142.75;75.67;76015.22;5020773;28;20382;-82
2021/07/13 06:51:36;;;;;;;;;;;;;;;-142.75;75.73;76017.19;5004037;28;19963;-83
2021/07/13 06:54:01;;;;;;;;;;;;;;;-142.75;75.90;76013.25;5023266;28;19913;-80
2021/07/13 06:56:26;;;;;;;;;;;;;;;-142.75;75.95;76011.28;4998957;28;19920;-80
2021/07/13 06:58:52;;;;;;;;;;;;;;;-142.75;75.65;76011.28;4999606;28;20409;-80
2021/07/13 07:01:17;;;;;;;;;;;;;;;-142.75;75.39;76017.19;5022699;28;19913;-81
2021/07/13 07:03:43;;;;;;;;;;;;;;;-142.75;75.05;76019.16;4998123;28;19913;-81
2021/07/13 07:06:08;;;;;;;;;;;;;;;-142.75;74.75;76023.09;5002529;28;19924;-81
2021/07/13 07:08:33;;;;;;;;;;;;;;;-142.75;74.71;76027.03;5003287;28;19913;-80
2021/07/13 07:10:58;;;;;;;;;;;;;;;-142.75;75.03;76030.97;5002047;28;19924;-80
2021/07/13 07:13:23;;;;;;;;;;;;;;;-142.75;75.01;76034.91;5020322;28;19949;-81
2021/07/13 07:15:49;;;;;;;;;;;;;;;-142.75;75.02;76042.78;5018764;28;20345;-80
2021/07/13 07:18:14;;;;;;;;;;;;;;;-142.75;74.85;76046.72;5019588;28;19957;-81
2021/07/13 07:20:39;;;;;;;;;;;;;;;-142.75;74.41;76050.66;5005678;28;19920;-81
2021/07/13 07:23:04;;;;;;;;;;;;;;;-142.75;74.66;76054.59;5007105;28;20000;-81
2021/07/13 07:25:32;;;;;;;;;;;;;;;-142.75;75.15;76054.59;5004754;28;19920;-82
2021/07/13 07:27:59;;;;;;;;;;;;;;;-142.75;75.30;76054.59;5005816;28;19919;-83
2021/07/13 07:30:24;;;;;;;;;;;;;;;-142.75;75.35;76052.63;5004537;28;20282;-82
2021/07/13 07:32:50;;;;;;;;;;;;;;;-142.75;75.03;76050.66;5021535;28;20012;-82
2021/07/13 07:35:15;;;;;;;;;;;;;;;-142.75;74.81;76048.69;5020598;28;20275;-80
2021/07/13 07:37:41;;;;;;;;;;;;;;;-142.75;74.93;76038.84;5018960;28;20286;-83
2021/07/13 07:40:07;;;;;;;;;;;;;;;-142.75;74.99;76030.97;5000031;28;19922;-83
2021/07/13 07:42:33;;;;;;;;;;;;;;;-142.75;75.08;76025.06;5019126;28;19913;-83
2021/07/13 07:44:59;;;;;;;;;;;;;;;-142.75;74.84;76027.03;5004853;28;19913;-82
2021/07/13 07:47:24;;;;;;;;;;;;;;;-142.75;74.98;76027.03;5005428;28;20286;-80
2021/07/13 07:49:49;;;;;;;;;;;;;;;-142.75;74.38;76027.03;5002819;28;20048;-81
2021/07/13 07:52:14;;;;;;;;;;;;;;;-142.75;73.99;76025.06;5003177;28;19913;-83
2021/07/13 07:54:40;;;;;;;;;;;;;;;-142.75;74.37;76023.09;5028813;28;19964;-83
2021/07/13 07:57:05;;;;;;;;;;;;;;;-142.75;73.96;76030.97;5011342;28;20004;-81
2021/07/13 07:59:30;;;;;;;;;;;;;;;-142.75;73.53;76034.91;5026575;28;19975;-80
2021/07/13 08:01:55;;;;;;;;;;;;;;;-142.75;72.86;76038.84;5007007;28;20334;-80
2021/07/13 08:04:20;;;;;;;;;;;;;;;-142.75;73.17;76029.00;5005124;28;19944;-84
2021/07/13 08:06:46;;;;;;;;;;;;;;;-142.75;73.55;76030.97;5024110;28;19925;-81
2021/07/13 08:09:11;;;;;;;;;;;;;;;-142.75;73.43;76019.16;5028720;28;19917;-84
2021/07/13 08:11:37;;;;;;;;;;;;;;;-142.75;73.12;76023.09;5029262;28;20379;-79
2021/07/13 08:14:04;;;;;;;;;;;;;;;-142.75;72.92;76023.09;5030071;28;19913;-83
2021/07/13 08:16:30;;;;;;;;;;;;;;;-142.75;72.97;76019.16;5023630;28;19932;-83
2021/07/13 08:18:56;;;;;;;;;;;;;;;-142.75;72.84;76019.16;5021756;28;19925;-83
2021/07/13 08:21:21;;;;;;;;;;;;;;;-142.75;73.07;76017.19;5025048;28;19920;-83
2021/07/13 08:23:46;;;;;;;;;;;;;;;-142.75;72.92;76015.22;5007518;28;20310;-84
2021/07/13 08:26:12;;;;;;;;;;;;;;;-142.75;72.96;76009.31;5006890;28;19948;-83
2021/07/13 08:28:37;;;;;;;;;;;;;;;-142.75;72.82;76009.31;5023156;28;20004;-83
2021/07/13 08:31:02;;;;;;;;;;;;;;;-142.75;72.58;76011.28;5028592;28;19917;-82
2021/07/13 08:33:27;;;;;;;;;;;;;;;-142.75;72.79;75999.47;5013477;28;19971;-82
2021/07/13 08:35:52;;;;;;;;;;;;;;;-142.75;72.01;75995.53;5017233;28;19913;-80
2021/07/13 08:38:17;;;;;;;;;;;;;;;-142.75;71.84;75995.53;5023465;28;20345;-83
2021/07/13 08:40:43;;;;;;;;;;;;;;;-142.75;72.21;75987.66;5026768;28;20045;-84
2021/07/13 08:43:08;;;;;;;;;;;;;;;-142.75;72.18;75991.59;5007889;28;19913;-83
2021/07/13 08:45:33;;;;;;;;;;;;;;;-142.75;71.90;75985.69;5025423;28;19964;-82
2021/07/13 08:47:58;;;;;;;;;;;;;;;-142.75;71.56;75979.78;5029102;28;19913;-83
2021/07/13 08:50:24;;;;;;;;;;;;;;;-142.75;71.17;75966.00;5011635;28;19913;-82
2021/07/13 08:52:49;;;;;;;;;;;;;;;-142.75;70.88;75956.19;5026961;28;19935;-81
2021/07/13 08:55:14;;;;;;;;;;;;;;;-142.75;71.22;75952.25;5025142;28;19928;-83
2021/07/13 08:57:40;;;;;;;;;;;;;;;-142.75;71.42;75952.25;5025338;28;19913;-83
2021/07/13 09:00:11;;;;;;;;;;;;;;;-142.75;71.09;75948.31;5004895;28;19918;-84
2021/07/13 09:02:36;;;;;;;;;;;;;;;-142.75;71.11;75948.31;5007571;28;19913;-83
2021/07/13 09:05:02;;;;;;;;;;;;;;;-142.75;71.33;75940.44;5006973;28;19921;-83
2021/07/13 09:07:30;;;;;;;;;;;;;;;-142.75;70.89;75942.41;5029795;28;20374;-84
2021/07/13 09:10:02;;;;;;;;;;;;;;;-142.75;70.90;75942.41;5025216;28;19917;-82
2021/07/13 09:12:27;;;;;;;;;;;;;;;-142.75;70.97;75954.22;5026154;28;19913;-84
2021/07/13 09:14:59;;;;;;;;;;;;;;;-142.75;71.01;75952.25;5004745;28;20020;-83
2021/07/13 09:17:41;;;;;;;;;;;;;;;-142.75;71.07;75944.38;5007156;28;19914;-83
2021/07/13 09:20:06;;;;;;;;;;;;;;;-142.75;71.42;75932.56;5023153;28;19921;-82
2021/07/13 09:22:32;;;;;;;;;;;;;;;-142.75;71.07;75922.72;5026232;28;20376;-81
2021/07/13 09:24:57;;;;;;;;;;;;;;;-142.75;70.07;75905.00;5024722;28;20035;-83
2021/07/13 09:27:22;;;;;;;;;;;;;;;-142.75;69.67;75889.25;5020387;28;19944;-81
2021/07/13 09:29:49;;;;;;;;;;;;;;;-142.75;69.26;75873.50;5023009;28;20334;-82
2021/07/13 09:32:31;;;;;;;;;;;;;;;-142.75;68.94;75851.88;5030897;28;19920;-82
2021/07/13 09:35:02;;;;;;;;;;;;;;;-142.75;68.41;75845.97;4999842;28;19917;-81
2021/07/13 09:37:29;;;;;;;;;;;;;;;-142.75;68.08;75847.94;5013128;28;19913;-83
2021/07/13 09:39:56;;;;;;;;;;;;;;;-142.75;67.80;75845.97;5003300;28;19973;-82
2021/07/13 09:42:22;;;;;;;;;;;;;;;-142.75;67.89;75853.84;5005914;28;20466;-83
2021/07/13 09:44:47;;;;;;;;;;;;;;;-142.75;68.30;75855.81;5006620;28;20446;-82
2021/07/13 09:47:26;;;;;;;;;;;;;;;-142.75;67.95;75865.63;5021100;28;19928;-82
2021/07/13 09:49:51;;;;;;;;;;;;;;;-142.75;67.70;75861.69;5002733;28;19918;-81
2021/07/13 09:52:22;;;;;;;;;;;;;;;-142.75;67.90;75859.72;5000869;28;19968;-81
2021/07/13 09:54:47;;;;;;;;;;;;;;;-142.75;67.87;75861.69;5021600;28;19913;-81
2021/07/13 09:57:14;;;;;;;;;;;;;;;-142.75;67.87;75867.59;5019394;28;20011;-82
2021/07/13 09:59:39;;;;;;;;;;;;;;;-142.75;68.07;75851.88;5022197;28;19983;-81
2021/07/13 10:02:05;;;;;;;;;;;;;;;-142.75;67.60;75853.84;4999084;28;19917;-82
2021/07/13 10:04:31;;;;;;;;;;;;;;;-142.75;66.86;75834.16;5019630;28;19959;-81
2021/07/13 10:06:58;;;;;;;;;;;;;;;-142.75;66.89;75798.72;5009969;28;20516;-81
2021/07/13 10:09:29;;;;;;;;;;;;;;;-142.75;66.63;75773.13;5019867;28;19932;-82
2021/07/13 10:11:54;;;;;;;;;;;;;;;-142.75;65.84;75763.28;5006531;28;19913;-81
2021/07/13 10:14:20;;;;;;;;;;;;;;;-142.75;65.32;75763.28;5017848;28;19920;-81
2021/07/13 10:16:45;;;;;;;;;;;;;;;-142.75;65.03;75771.16;5007040;28;19913;-81
2021/07/13 10:19:10;;;;;;;;;;;;;;;-142.75;65.40;75786.91;5002994;28;19967;-81
2021/07/13 10:21:37;;;;;;;;;;;;;;;-142.75;65.21;75796.75;5014645;28;19922;-83
2021/07/13 10:24:03;;;;;;;;;;;;;;;-142.75;65.84;75802.66;5023879;28;19928;-81
2021/07/13 10:26:45;;;;;;;;;;;;;;;-142.75;65.72;75806.59;5007562;28;19925;-84
2021/07/13 10:29:29;;;;;;;;;;;;;;;-142.75;65.12;75814.47;5007296;28;19917;-81
2021/07/13 10:31:54;;;;;;;;;;;;;;;-142.75;65.68;75822.34;5025988;28;19928;-81
2021/07/13 10:34:38;;;;;;;;;;;;;;;-142.75;65.74;75836.13;5023170;28;19917;-82
2021/07/13 10:37:22;;;;;;;;;;;;;;;-142.75;65.46;75859.72;5020034;28;20414;-82
2021/07/13 10:39:47;;;;;;;;;;;;;;;-142.75;66.18;75883.34;5005910;28;20362;-83
2021/07/13 10:42:32;;;;;;;;;;;;;;;-142.75;66.64;75889.25;5008848;28;20008;-83
2021/07/13 10:45:10;;;;;;;;;;;;;;;-142.75;66.90;75893.19;5028899;28;19924;-84
2021/07/13 10:47:35;;;;;;;;;;;;;;;-142.75;66.79;75893.19;5022268;28;19918;-81
2021/07/13 10:50:15;;;;;;;;;;;;;;;-142.75;66.45;75889.25;5018038;28;19928;-82
2021/07/13 10:53:01;;;;;;;;;;;;;;;-142.75;66.61;75885.31;5026354;28;19944;-82
2021/07/13 10:55:29;;;;;;;;;;;;;;;-142.75;66.24;75877.44;5006165;28;19948;-83
2021/07/13 10:58:14;;;;;;;;;;;;;;;-142.75;65.86;75877.44;5021931;28;19917;-83
2021/07/13 11:01:00;;;;;;;;;;;;;;;-142.75;65.96;75885.31;5020831;28;19924;-81
2021/07/13 11:03:35;;;;;;;;;;;;;;;-142.75;66.14;75881.38;5015226;28;19961;-81
2021/07/13 11:06:00;;;;;;;;;;;;;;;-142.75;66.14;75869.56;5002333;28;19943;-82
2021/07/13 11:08:41;;;;;;;;;;;;;;;-142.75;65.74;75865.63;5019204;28;19921;-82
2021/07/13 11:11:06;;;;;;;;;;;;;;;-142.75;65.78;75849.91;5020260;28;19957;-82
2021/07/13 11:13:31;;;;;;;;;;;;;;;-142.75;65.92;75840.06;5001811;28;19924;-82
2021/07/13 11:15:57;;;;;;;;;;;;;;;-142.75;65.92;75818.41;4999849;28;19918;-82
2021/07/13 11:18:26;;;;;;;;;;;;;;;-142.75;65.02;75804.63;5022616;28;19928;-83
2021/07/13 11:20:51;;;;;;;;;;;;;;;-142.75;64.91;75812.50;5003536;28;20409;-81
2021/07/13 11:23:25;;;;;;;;;;;;;;;-142.75;64.65;75824.31;4998209;28;19925;-82
2021/07/13 11:26:01;;;;;;;;;;;;;;;-142.75;65.12;75824.31;5025927;28;20382;-81
2021/07/13 11:28:26;;;;;;;;;;;;;;;-142.75;64.88;75824.31;5005519;28;19932;-82
2021/07/13 11:30:52;;;;;;;;;;;;;;;-142.75;64.90;75844.00;5007796;28;19918;-81
2021/07/13 11:33:24;;;;;;;;;;;;;;;-142.75;64.96;75847.94;5008178;28;20379;-81
2021/07/13 11:35:53;;;;;;;;;;;;;;;-142.75;65.16;75849.91;5000159;28;19918;-82
2021/07/13 11:38:29;;;;;;;;;;;;;;;-142.75;66.27;75840.06;5003598;28;19922;-81
2021/07/13 11:41:14;;;;;;;;;;;;;;;-142.75;64.94;75834.16;5000033;28;19975;-80
2021/07/13 11:43:39;;;;;;;;;;;;;;;-142.75;64.93;75838.09;5021501;28;19917;-79
2021/07/13 11:46:09;;;;;;;;;;;;;;;-142.75;65.21;75845.97;5015859;28;20393;-80
2021/07/13 11:48:34;;;;;;;;;;;;;;;-142.75;64.72;75842.03;5027432;28;20361;-80
2021/07/13 11:50:59;;;;;;;;;;;;;;;-142.75;64.52;75830.22;5007716;28;19932;-82
2021/07/13 11:53:28;;;;;;;;;;;;;;;-142.75;64.77;75822.34;5006212;28;19940;-80
2021/07/13 11:56:00;;;;;;;;;;;;;;;-142.75;63.84;75830.22;5007878;28;20342;-80
2021/07/13 11:58:29;;;;;;;;;;;;;;;-142.75;64.12;75830.22;5018195;28;19921;-79
2021/07/13 12:00:54;;;;;;;;;;;;;;;-142.75;64.06;75838.09;5003567;28;19918;-82
2021/07/13 12:03:29;;;;;;;;;;;;;;;-142.75;64.70;75838.09;5005449;28;19923;-80
2021/07/13 12:06:21;;;;;;;;;;;;;;;-142.75;64.89;75845.97;5024492;28;20276;-82
2021/07/13 12:08:54;;;;;;;;;;;;;;;-142.75;65.23;75834.16;5005765;28;20011;-82
2021/07/13 12:11:27;;;;;;;;;;;;;;;-142.75;64.62;75826.28;5003485;28;19917;-80
2021/07/13 12:13:53;;;;;;;;;;;;;;;-142.75;64.44;75822.34;5010076;28;19925;-81
2021/07/13 12:16:19;;;;;;;;;;;;;;;-142.75;63.57;75822.34;5020472;28;19921;-77
2021/07/13 12:18:44;;;;;;;;;;;;;;;-142.75;63.31;75845.97;5003584;28;19932;-81
2021/07/13 12:21:14;;;;;;;;;;;;;;;-142.75;63.88;75840.06;5004747;28;19917;-81
2021/07/13 12:23:40;;;;;;;;;;;;;;;-142.75;63.97;75834.16;5008589;28;19917;-81
2021/07/13 12:26:24;;;;;;;;;;;;;;;-142.75;64.17;75826.28;5022422;28;19917;-79
2021/07/13 12:29:05;;;;;;;;;;;;;;;-142.75;63.73;75842.03;5023189;28;19924;-79